Terminal Aerodrome Forecast
Issued by NWS

Home | Current Version | Previous Version | Text Only | Print | Product List | Glossary On
Versions: 1 2 3 4 5 6 7 8 9 10 11 12 13 14 15 16 17 18 19 20 21
625
FTUS43 KGRR 262340
TAFMKG
TAF
KMKG 262340Z 2700/2724 27013G23KT P6SM VCSH BKN060
     FM270400 26010G20KT P6SM VCSH BKN050
     FM271400 25015G25KT P6SM VCSH OVC035=

USA.gov is the U.S. government's official web portal to all federal, state and local government web resources and services.